createdAt,value
2023-05-08T00:00:05.221Z,18.38
2023-05-08T00:02:06.855Z,20.63
2023-05-08T00:04:08.554Z,15.55
2023-05-08T00:06:10.381Z,18.48
2023-05-08T00:08:12.078Z,15.75
2023-05-08T00:10:13.780Z,19.70
2023-05-08T00:12:15.537Z,17.02
2023-05-08T00:14:17.061Z,19.52
2023-05-08T00:16:18.719Z,19.10
2023-05-08T00:18:20.340Z,18.55
2023-05-08T00:20:21.911Z,19.50
2023-05-08T00:22:23.453Z,18.67
2023-05-08T00:24:25.002Z,18.08
2023-05-08T00:26:26.540Z,19.70
2023-05-08T00:28:28.107Z,19.42
2023-05-08T00:30:29.607Z,22.15
2023-05-08T00:32:31.273Z,17.38
2023-05-08T00:34:32.908Z,18.13
2023-05-08T00:36:34.431Z,17.15
2023-05-08T00:38:36.843Z,17.23
2023-05-08T00:40:38.849Z,16.83
2023-05-08T00:42:40.403Z,16.70
2023-05-08T00:44:41.970Z,18.38
2023-05-08T00:46:44.873Z,21.15
2023-05-08T00:48:47.308Z,15.95
2023-05-08T00:50:50.079Z,16.40
2023-05-08T00:52:52.149Z,14.25
2023-05-08T00:54:54.724Z,16.20
2023-05-08T00:56:56.690Z,17.65
2023-05-08T00:58:58.829Z,15.70
2023-05-08T01:01:01.039Z,15.90
2023-05-08T01:03:03.262Z,15.48
2023-05-08T01:05:05.810Z,16.15
2023-05-08T01:09:32.913Z,15.48
2023-05-08T01:11:44.662Z,14.68
2023-05-08T01:14:07.889Z,16.60
2023-05-08T01:16:20.031Z,15.40
2023-05-08T01:18:32.518Z,16.10
2023-05-08T01:20:57.180Z,16.45
2023-05-08T01:23:32.949Z,15.60
2023-05-08T01:26:00.878Z,16.30
2023-05-08T01:28:14.589Z,18.98
2023-05-08T01:30:31.400Z,16.02
2023-05-08T01:32:43.719Z,18.60
2023-05-08T01:35:28.162Z,21.00
2023-05-08T01:40:12.866Z,18.92
2023-05-08T01:42:17.571Z,19.92
2023-05-08T01:44:24.680Z,19.77
2023-05-08T01:46:28.368Z,19.60
2023-05-08T01:48:33.853Z,18.42
2023-05-08T01:50:46.904Z,19.55
2023-05-08T01:55:14.779Z,20.58
2023-05-08T01:57:18.765Z,19.58
2023-05-08T01:59:23.753Z,21.98
2023-05-08T02:01:29.398Z,20.02
2023-05-08T02:03:35.610Z,22.65
2023-05-08T02:05:38.021Z,20.42
2023-05-08T02:07:41.210Z,19.60
2023-05-08T02:09:44.189Z,18.50
2023-05-08T02:11:47.169Z,18.88
2023-05-08T02:13:50.157Z,22.33
2023-05-08T02:15:54.505Z,18.00
2023-05-08T02:17:57.681Z,21.63
2023-05-08T02:20:03.519Z,19.42
2023-05-08T02:22:05.933Z,20.83
2023-05-08T02:24:09.226Z,19.73
2023-05-08T02:26:13.769Z,18.17
2023-05-08T02:28:18.064Z,16.98
2023-05-08T02:30:22.015Z,17.80
2023-05-08T02:32:26.704Z,18.35
2023-05-08T02:34:29.846Z,19.33
2023-05-08T02:36:32.884Z,17.38
2023-05-08T02:38:37.737Z,17.52
2023-05-08T02:40:45.573Z,18.98
2023-05-08T02:42:47.359Z,17.75
2023-05-08T02:44:48.883Z,17.00
2023-05-08T02:46:56.072Z,20.55
2023-05-08T02:49:07.298Z,17.48
2023-05-08T02:51:24.180Z,16.77
2023-05-08T02:53:34.408Z,17.17
2023-05-08T02:55:42.724Z,18.45
2023-05-08T02:57:53.608Z,18.88
2023-05-08T03:00:08.091Z,18.00
2023-05-08T03:02:28.812Z,16.70
2023-05-08T03:04:40.323Z,19.73
2023-05-08T03:06:46.899Z,19.40
2023-05-08T03:08:50.591Z,17.40
2023-05-08T03:10:56.012Z,20.25
2023-05-08T03:13:00.062Z,19.20
2023-05-08T03:15:08.079Z,18.10
2023-05-08T03:17:13.980Z,18.38
2023-05-08T03:19:23.359Z,19.90
2023-05-08T03:21:28.589Z,20.33
2023-05-08T03:23:33.174Z,18.85
2023-05-08T03:25:38.481Z,18.92
2023-05-08T03:27:41.156Z,18.08
2023-05-08T03:29:44.111Z,20.65
2023-05-08T03:31:47.441Z,18.83
2023-05-08T03:33:53.388Z,18.67
2023-05-08T03:35:56.603Z,21.38
2023-05-08T03:37:59.152Z,20.90
2023-05-08T03:40:01.036Z,21.17
2023-05-08T03:42:04.550Z,19.30
2023-05-08T03:44:07.662Z,19.05
2023-05-08T03:46:10.422Z,19.73
2023-05-08T03:48:13.298Z,18.75
2023-05-08T03:50:15.745Z,20.38
2023-05-08T03:52:17.398Z,18.50
2023-05-08T03:54:18.951Z,19.90
2023-05-08T03:56:20.995Z,17.20
2023-05-08T03:58:31.455Z,16.95
2023-05-08T04:01:07.283Z,16.55
2023-05-08T04:03:30.705Z,16.63
2023-05-08T04:05:37.855Z,16.42
2023-05-08T04:07:48.039Z,16.27
2023-05-08T04:10:07.167Z,15.80
2023-05-08T04:12:17.619Z,18.80
2023-05-08T04:14:21.290Z,17.17
2023-05-08T04:16:28.654Z,16.23
2023-05-08T04:18:30.985Z,16.77
2023-05-08T04:20:33.710Z,17.52
2023-05-08T04:22:38.606Z,16.15
2023-05-08T04:24:45.808Z,18.52
2023-05-08T04:26:48.107Z,16.27
2023-05-08T04:28:49.976Z,17.58
2023-05-08T04:30:52.412Z,17.10
2023-05-08T04:32:54.517Z,17.95
2023-05-08T04:34:56.534Z,16.83
2023-05-08T04:36:58.212Z,15.10
2023-05-08T04:38:59.813Z,17.30
2023-05-08T04:41:01.388Z,15.75
2023-05-08T04:43:03.016Z,16.27
2023-05-08T04:45:06.032Z,15.15
2023-05-08T04:47:07.536Z,15.38
2023-05-08T04:49:09.141Z,17.60
2023-05-08T04:51:10.797Z,18.00
2023-05-08T04:53:12.329Z,16.50
2023-05-08T04:55:14.114Z,16.90
2023-05-08T04:57:15.822Z,15.95
2023-05-08T04:59:17.321Z,15.52
2023-05-08T05:01:18.908Z,16.63
2023-05-08T05:03:20.550Z,16.10
2023-05-08T05:05:22.132Z,17.85
2023-05-08T05:07:23.638Z,18.38
2023-05-08T05:09:25.866Z,16.67
2023-05-08T05:11:27.500Z,19.65
2023-05-08T05:13:29.103Z,14.75
2023-05-08T05:15:30.977Z,13.52
2023-05-08T05:17:33.409Z,14.13
2023-05-08T05:19:35.083Z,16.00
2023-05-08T05:21:38.036Z,17.50
2023-05-08T05:23:39.586Z,13.55
2023-05-08T05:25:41.127Z,15.32
2023-05-08T05:27:42.623Z,14.60
2023-05-08T05:29:44.160Z,13.05
2023-05-08T05:31:45.689Z,14.55
2023-05-08T05:33:47.248Z,15.10
2023-05-08T05:35:48.882Z,13.23
2023-05-08T05:37:50.429Z,14.75
2023-05-08T05:39:51.931Z,14.20
2023-05-08T05:41:53.561Z,14.25
2023-05-08T05:43:55.224Z,12.65
2023-05-08T05:46:03.342Z,13.75
2023-05-08T05:48:05.299Z,14.35
2023-05-08T05:50:07.192Z,14.90
2023-05-08T05:52:08.733Z,14.52
2023-05-08T05:54:10.277Z,17.50
2023-05-08T05:56:11.812Z,14.85
2023-05-08T05:58:13.295Z,11.52
2023-05-08T06:00:16.495Z,11.48
2023-05-08T06:02:19.914Z,11.27
2023-05-08T06:04:21.682Z,11.48
2023-05-08T06:06:23.265Z,11.18
2023-05-08T06:08:24.841Z,11.63
2023-05-08T06:10:26.378Z,10.57
2023-05-08T06:12:28.501Z,13.40
2023-05-08T06:14:30.029Z,9.55
2023-05-08T06:16:32.192Z,10.95
2023-05-08T06:18:34.086Z,9.75
2023-05-08T06:20:38.044Z,9.43
2023-05-08T06:22:40.256Z,10.75
2023-05-08T06:24:41.782Z,12.63
2023-05-08T06:26:43.330Z,11.48
2023-05-08T06:28:44.825Z,10.95
2023-05-08T06:30:46.339Z,13.13
2023-05-08T06:32:47.967Z,13.27
2023-05-08T06:34:49.752Z,15.95
2023-05-08T06:36:51.328Z,13.68
2023-05-08T06:38:52.987Z,14.15
2023-05-08T06:40:55.266Z,13.93
2023-05-08T06:42:56.848Z,13.70
2023-05-08T06:44:58.407Z,12.93
2023-05-08T06:46:59.971Z,13.98
2023-05-08T06:49:01.509Z,14.10
2023-05-08T06:51:05.901Z,15.95
2023-05-08T06:53:08.177Z,14.68
2023-05-08T06:55:09.871Z,13.32
2023-05-08T06:57:13.772Z,12.50
2023-05-08T06:59:15.459Z,12.18
2023-05-08T07:01:17.094Z,11.93
2023-05-08T07:03:18.652Z,14.20
2023-05-08T07:05:20.456Z,12.20
2023-05-08T07:07:22.349Z,10.45
2023-05-08T07:09:23.933Z,10.00
2023-05-08T07:11:25.588Z,10.18
2023-05-08T07:13:27.320Z,10.07
2023-05-08T07:15:32.122Z,9.55
2023-05-08T07:17:36.934Z,9.38
2023-05-08T07:19:38.876Z,9.95
2023-05-08T07:21:40.509Z,10.80
2023-05-08T07:23:42.115Z,9.57
2023-05-08T07:25:43.812Z,12.43
2023-05-08T07:27:45.334Z,10.77
2023-05-08T07:29:46.960Z,13.20
2023-05-08T07:31:48.783Z,10.30
2023-05-08T07:33:50.392Z,10.77
2023-05-08T07:35:52.758Z,10.77
2023-05-08T07:37:54.441Z,9.38
2023-05-08T07:39:56.069Z,8.98
2023-05-08T07:41:57.739Z,9.98
2023-05-08T07:43:59.325Z,11.20
2023-05-08T07:46:00.953Z,11.88
2023-05-08T07:48:02.625Z,9.15
2023-05-08T07:50:05.053Z,8.38
2023-05-08T07:52:06.742Z,9.23
2023-05-08T07:54:08.323Z,10.65
2023-05-08T07:56:09.941Z,11.18
2023-05-08T07:58:11.528Z,9.20
2023-05-08T08:00:15.387Z,8.55
2023-05-08T08:02:17.000Z,8.32
2023-05-08T08:04:18.655Z,7.57
2023-05-08T08:06:20.290Z,8.48
2023-05-08T08:08:21.865Z,7.75
2023-05-08T08:10:23.438Z,10.40
2023-05-08T08:12:25.232Z,7.10
2023-05-08T08:14:27.523Z,8.00
2023-05-08T08:16:29.106Z,7.00
2023-05-08T08:18:34.744Z,7.63
2023-05-08T08:20:36.318Z,7.75
2023-05-08T08:22:38.000Z,7.93
2023-05-08T08:24:39.512Z,7.78
2023-05-08T08:26:41.065Z,8.18
2023-05-08T08:28:42.583Z,7.88
2023-05-08T08:30:44.187Z,10.82
2023-05-08T08:32:46.464Z,12.68
2023-05-08T08:34:48.237Z,12.38
2023-05-08T08:36:49.797Z,9.82
2023-05-08T08:38:51.309Z,10.63
2023-05-08T08:40:53.507Z,8.88
2023-05-08T08:42:55.617Z,6.53
2023-05-08T08:44:57.212Z,9.52
2023-05-08T08:47:00.230Z,6.85
2023-05-08T08:49:04.712Z,8.20
2023-05-08T08:51:09.455Z,6.78
2023-05-08T08:53:17.250Z,6.47
2023-05-08T08:55:20.773Z,9.20
2023-05-08T08:57:24.490Z,9.43
2023-05-08T08:59:28.201Z,8.60
2023-05-08T09:01:30.422Z,7.93
2023-05-08T09:03:32.657Z,12.70
2023-05-08T09:05:35.193Z,9.27
2023-05-08T09:07:38.710Z,10.93
2023-05-08T09:09:44.532Z,8.15
2023-05-08T09:11:46.813Z,7.82
2023-05-08T09:13:48.649Z,7.82
2023-05-08T09:15:50.786Z,7.95
2023-05-08T09:17:52.428Z,7.95
2023-05-08T09:19:54.255Z,11.07
2023-05-08T09:22:05.252Z,8.50
2023-05-08T09:24:06.920Z,10.20
2023-05-08T09:26:09.324Z,7.32
2023-05-08T09:28:24.720Z,7.72
2023-05-08T09:30:26.319Z,6.88
2023-05-08T09:32:32.090Z,8.88
2023-05-08T09:34:35.135Z,6.50
2023-05-08T09:36:38.730Z,6.43
2023-05-08T09:38:41.915Z,7.00
2023-05-08T09:40:43.563Z,7.00
2023-05-08T09:42:46.953Z,6.65
2023-05-08T09:44:54.180Z,7.03
2023-05-08T09:47:11.252Z,6.53
2023-05-08T09:49:18.298Z,10.27
2023-05-08T09:51:20.478Z,7.70
2023-05-08T09:53:31.162Z,6.25
2023-05-08T09:55:47.294Z,6.43
2023-05-08T09:57:59.614Z,5.78
2023-05-08T10:00:03.229Z,7.18
2023-05-08T10:02:10.992Z,7.95
2023-05-08T10:04:12.553Z,6.53
2023-05-08T10:06:15.010Z,5.72
2023-05-08T10:08:24.053Z,9.60
2023-05-08T10:10:27.997Z,6.10
2023-05-08T10:12:30.433Z,6.47
2023-05-08T10:14:32.010Z,6.60
2023-05-08T10:16:44.355Z,6.85
2023-05-08T10:18:50.029Z,6.82
2023-05-08T10:20:55.091Z,6.88
2023-05-08T10:22:57.441Z,7.45
2023-05-08T10:25:00.907Z,5.60
2023-05-08T10:27:14.100Z,6.45
2023-05-08T10:29:21.479Z,7.13
2023-05-08T10:31:26.907Z,6.72
2023-05-08T10:33:31.803Z,5.85
2023-05-08T10:35:33.486Z,6.15
2023-05-08T10:37:36.396Z,10.00
2023-05-08T10:39:39.236Z,8.30
2023-05-08T10:41:41.716Z,6.90
2023-05-08T10:43:43.722Z,8.05
2023-05-08T10:45:45.756Z,8.50
2023-05-08T10:48:21.803Z,6.15
2023-05-08T10:50:45.198Z,5.25
2023-05-08T10:53:03.693Z,6.47
2023-05-08T10:55:24.166Z,6.75
2023-05-08T10:57:25.720Z,5.82
2023-05-08T10:59:29.999Z,4.72
2023-05-08T11:01:31.642Z,5.93
2023-05-08T11:03:38.739Z,5.10
2023-05-08T11:05:47.585Z,5.03
2023-05-08T11:07:59.946Z,5.75
2023-05-08T11:10:07.931Z,5.70
2023-05-08T11:12:26.989Z,4.80
2023-05-08T11:16:55.186Z,3.72
2023-05-08T11:19:19.048Z,5.00
2023-05-08T11:21:24.192Z,3.80
2023-05-08T11:23:33.189Z,5.45
2023-05-08T11:25:44.829Z,4.40
2023-05-08T11:27:49.105Z,4.22
2023-05-08T11:30:19.126Z,4.15
2023-05-08T11:32:21.093Z,4.72
2023-05-08T11:34:44.118Z,4.00
2023-05-08T11:37:01.342Z,3.30
2023-05-08T11:39:12.754Z,4.00
2023-05-08T11:41:22.231Z,4.30
2023-05-08T11:43:33.101Z,3.58
2023-05-08T11:45:37.870Z,3.30
2023-05-08T11:47:44.828Z,4.53
2023-05-08T11:49:46.627Z,5.50
2023-05-08T11:51:50.051Z,4.82
2023-05-08T11:53:51.651Z,4.88
2023-05-08T11:55:53.843Z,4.88
2023-05-08T11:57:55.779Z,4.55
2023-05-08T11:59:57.380Z,4.82
2023-05-08T12:02:07.925Z,4.53
2023-05-08T12:04:12.888Z,4.40
2023-05-08T12:06:14.739Z,5.20
2023-05-08T12:08:18.157Z,4.40
2023-05-08T12:10:20.145Z,5.85
2023-05-08T12:12:21.737Z,8.15
2023-05-08T12:14:23.948Z,5.55
2023-05-08T12:16:26.305Z,6.82
2023-05-08T12:18:30.523Z,6.97
2023-05-08T12:20:33.780Z,6.35
2023-05-08T12:22:35.520Z,6.68
2023-05-08T12:24:37.336Z,7.68
2023-05-08T12:26:39.060Z,6.95
2023-05-08T12:28:43.969Z,6.38
2023-05-08T12:30:45.914Z,5.57
2023-05-08T12:32:48.125Z,6.65
2023-05-08T12:34:49.914Z,6.28
2023-05-08T12:37:02.247Z,9.73
2023-05-08T12:39:14.089Z,5.38
2023-05-08T12:41:23.681Z,5.95
2023-05-08T12:43:33.076Z,6.97
2023-05-08T12:45:40.449Z,6.35
2023-05-08T12:47:45.884Z,8.20
2023-05-08T12:49:50.175Z,6.60
2023-05-08T12:51:52.833Z,6.38
2023-05-08T12:53:54.596Z,6.60
2023-05-08T12:55:58.477Z,5.68
2023-05-08T12:58:07.104Z,7.13
2023-05-08T13:00:09.143Z,6.25
2023-05-08T13:02:16.188Z,7.97
2023-05-08T13:04:18.017Z,24.70
2023-05-08T13:06:21.429Z,21.10
2023-05-08T13:08:39.539Z,6.30
2023-05-08T13:10:52.812Z,8.88
2023-05-08T13:12:54.439Z,7.50
2023-05-08T13:14:56.135Z,7.60
2023-05-08T13:16:57.799Z,8.25
2023-05-08T13:18:59.310Z,9.32
2023-05-08T13:21:02.233Z,7.93
2023-05-08T13:23:04.711Z,6.05
2023-05-08T13:25:06.750Z,6.15
2023-05-08T13:27:08.262Z,7.50
2023-05-08T13:29:09.785Z,6.63
2023-05-08T13:31:11.335Z,8.82
2023-05-08T13:33:12.986Z,6.47
2023-05-08T13:35:17.651Z,7.50
2023-05-08T13:37:19.532Z,6.53
2023-05-08T13:39:21.124Z,6.03
2023-05-08T13:41:22.880Z,8.95
2023-05-08T13:43:24.417Z,7.47
2023-05-08T13:45:26.179Z,7.45
2023-05-08T13:47:27.890Z,7.30
2023-05-08T13:49:29.485Z,19.15
2023-05-08T13:51:31.538Z,27.25
2023-05-08T13:53:33.075Z,7.25
2023-05-08T13:55:34.737Z,6.70
2023-05-08T13:57:36.367Z,7.00
2023-05-08T13:59:37.997Z,6.85
2023-05-08T14:01:39.583Z,7.40
2023-05-08T14:03:41.348Z,8.30
2023-05-08T14:05:42.957Z,6.47
2023-05-08T14:07:45.117Z,7.82
2023-05-08T14:09:47.022Z,8.40
2023-05-08T14:11:48.623Z,7.45
2023-05-08T14:13:50.568Z,8.55
2023-05-08T14:15:52.189Z,7.45
2023-05-08T14:17:53.910Z,6.93
2023-05-08T14:19:55.444Z,6.50
2023-05-08T14:21:57.048Z,7.25
2023-05-08T14:23:58.595Z,6.85
2023-05-08T14:26:00.460Z,8.25
2023-05-08T14:28:02.007Z,10.27
2023-05-08T14:30:03.889Z,7.03
2023-05-08T14:32:06.185Z,41.47
2023-05-08T14:34:07.767Z,26.92
2023-05-08T14:36:09.720Z,8.15
2023-05-08T14:38:11.967Z,7.18
2023-05-08T14:40:13.615Z,7.85
2023-05-08T14:42:22.711Z,11.60
2023-05-08T14:44:24.772Z,6.28
2023-05-08T14:46:26.466Z,8.65
2023-05-08T14:48:28.011Z,8.77
2023-05-08T14:50:29.549Z,7.38
2023-05-08T14:52:31.203Z,7.25
2023-05-08T14:54:33.090Z,7.13
2023-05-08T14:56:46.375Z,7.30
2023-05-08T14:58:48.857Z,7.25
2023-05-08T15:00:50.685Z,7.10
2023-05-08T15:02:56.021Z,7.15
2023-05-08T15:04:57.594Z,6.55
2023-05-08T15:06:59.125Z,6.60
2023-05-08T15:09:00.667Z,7.78
2023-05-08T15:11:02.469Z,22.08
2023-05-08T15:13:04.392Z,8.82
2023-05-08T15:15:06.655Z,8.40
2023-05-08T15:17:08.239Z,8.25
2023-05-08T15:19:09.878Z,7.43
2023-05-08T15:21:11.474Z,9.55
2023-05-08T15:23:13.006Z,7.18
2023-05-08T15:25:15.226Z,7.57
2023-05-08T15:27:16.959Z,7.82
2023-05-08T15:29:18.515Z,8.13
2023-05-08T15:31:20.071Z,9.25
2023-05-08T15:33:21.641Z,7.30
2023-05-08T15:35:23.246Z,8.43
2023-05-08T15:37:24.744Z,7.63
2023-05-08T15:39:29.255Z,6.63
2023-05-08T15:41:30.778Z,8.10
2023-05-08T15:43:32.452Z,6.43
2023-05-08T15:45:34.047Z,7.13
2023-05-08T15:47:35.640Z,8.93
2023-05-08T15:49:37.291Z,7.65
2023-05-08T15:51:38.790Z,8.80
2023-05-08T15:53:40.340Z,12.60
2023-05-08T15:55:42.292Z,19.52
2023-05-08T15:57:43.882Z,8.15
2023-05-08T15:59:45.475Z,6.47
2023-05-08T16:01:47.242Z,5.85
2023-05-08T16:03:49.168Z,6.20
2023-05-08T16:05:50.803Z,6.85
2023-05-08T16:07:53.856Z,6.25
2023-05-08T16:09:55.457Z,7.43
2023-05-08T16:11:56.972Z,7.28
2023-05-08T16:13:59.782Z,6.22
2023-05-08T16:16:07.852Z,6.95
2023-05-08T16:18:09.474Z,6.32
2023-05-08T16:20:11.651Z,8.13
2023-05-08T16:22:13.169Z,8.02
2023-05-08T16:24:14.786Z,10.07
2023-05-08T16:26:16.634Z,6.90
2023-05-08T16:28:18.226Z,7.72
2023-05-08T16:30:19.977Z,7.13
2023-05-08T16:32:21.581Z,8.25
2023-05-08T16:34:23.107Z,7.50
2023-05-08T16:36:24.740Z,7.43
2023-05-08T16:38:26.265Z,7.70
2023-05-08T16:40:27.838Z,8.02
2023-05-08T16:42:29.404Z,8.20
2023-05-08T16:44:31.013Z,10.10
2023-05-08T16:46:32.709Z,7.80
2023-05-08T16:48:34.472Z,8.93
2023-05-08T16:50:36.079Z,6.88
2023-05-08T16:52:38.215Z,7.63
2023-05-08T16:54:39.996Z,7.85
2023-05-08T16:56:41.602Z,8.10
2023-05-08T16:58:43.303Z,8.43
2023-05-08T17:00:44.835Z,8.43
2023-05-08T17:02:46.406Z,7.32
2023-05-08T17:04:48.906Z,8.00
2023-05-08T17:06:50.436Z,10.32
2023-05-08T17:08:51.948Z,8.25
2023-05-08T17:10:54.232Z,8.02
2023-05-08T17:12:56.279Z,9.73
2023-05-08T17:14:57.791Z,17.90
2023-05-08T17:16:59.716Z,8.63
2023-05-08T17:19:01.611Z,7.78
2023-05-08T17:21:03.235Z,7.78
2023-05-08T17:23:04.750Z,8.68
2023-05-08T17:25:07.052Z,7.72
2023-05-08T17:27:08.651Z,7.45
2023-05-08T17:29:10.249Z,6.68
2023-05-08T17:31:12.182Z,8.23
2023-05-08T17:33:13.768Z,7.15
2023-05-08T17:35:16.628Z,8.23
2023-05-08T17:37:18.205Z,9.60
2023-05-08T17:39:21.632Z,13.15
2023-05-08T17:41:23.181Z,9.15
2023-05-08T17:43:25.823Z,8.98
2023-05-08T17:45:27.500Z,8.55
2023-05-08T17:47:29.052Z,12.50
2023-05-08T17:49:30.667Z,10.32
2023-05-08T17:51:32.419Z,11.38
2023-05-08T17:53:33.953Z,8.63
2023-05-08T17:55:38.495Z,9.52
2023-05-08T17:57:39.990Z,9.23
2023-05-08T17:59:41.568Z,10.65
2023-05-08T18:01:43.108Z,10.65
2023-05-08T18:03:50.827Z,10.45
2023-05-08T18:05:52.436Z,10.07
2023-05-08T18:07:53.987Z,8.00
2023-05-08T18:09:55.612Z,7.95
2023-05-08T18:12:02.368Z,10.20
2023-05-08T18:14:03.974Z,9.10
2023-05-08T18:16:05.582Z,10.73
2023-05-08T18:18:07.340Z,10.52
2023-05-08T18:20:09.347Z,8.77
2023-05-08T18:22:10.876Z,8.48
2023-05-08T18:24:12.487Z,9.00
2023-05-08T18:26:15.441Z,7.32
2023-05-08T18:28:16.956Z,11.93
2023-05-08T18:30:18.528Z,8.32
2023-05-08T18:32:20.530Z,10.85
2023-05-08T18:34:22.102Z,10.82
2023-05-08T18:36:23.727Z,10.02
2023-05-08T18:38:25.437Z,9.05
2023-05-08T18:40:27.010Z,7.82
2023-05-08T18:42:28.524Z,10.35
2023-05-08T18:44:30.081Z,10.82
2023-05-08T18:46:31.901Z,7.43
2023-05-08T18:48:33.536Z,9.55
2023-05-08T18:50:35.190Z,10.27
2023-05-08T18:52:36.749Z,9.10
2023-05-08T18:54:40.520Z,7.65
2023-05-08T18:56:42.254Z,9.32
2023-05-08T18:58:43.824Z,9.43
2023-05-08T19:00:45.395Z,9.68
2023-05-08T19:02:47.666Z,8.60
2023-05-08T19:04:49.256Z,8.10
2023-05-08T19:06:50.808Z,8.55
2023-05-08T19:08:52.453Z,9.32
2023-05-08T19:10:54.134Z,9.20
2023-05-08T19:12:55.937Z,9.10
2023-05-08T19:14:57.485Z,10.15
2023-05-08T19:16:59.035Z,9.70
2023-05-08T19:19:00.751Z,11.82
2023-05-08T19:21:02.401Z,7.95
2023-05-08T19:23:03.968Z,9.90
2023-05-08T19:25:05.939Z,7.85
2023-05-08T19:27:07.431Z,7.50
2023-05-08T19:29:09.039Z,9.30
2023-05-08T19:31:10.676Z,7.90
2023-05-08T19:33:12.327Z,11.00
2023-05-08T19:35:13.920Z,9.10
2023-05-08T19:37:15.506Z,8.82
2023-05-08T19:39:17.866Z,8.05
2023-05-08T19:41:19.482Z,11.57
2023-05-08T19:43:21.057Z,8.32
2023-05-08T19:45:22.609Z,7.97
2023-05-08T19:47:24.181Z,8.20
2023-05-08T19:49:25.786Z,8.55
2023-05-08T19:51:27.317Z,7.40
2023-05-08T19:53:28.828Z,9.18
2023-05-08T19:55:30.417Z,7.28
2023-05-08T19:57:31.918Z,7.50
2023-05-08T19:59:33.475Z,7.30
2023-05-08T20:01:34.990Z,8.15
2023-05-08T20:03:36.623Z,7.35
2023-05-08T20:05:38.185Z,6.45
2023-05-08T20:07:39.679Z,6.10
2023-05-08T20:09:41.294Z,7.50
2023-05-08T20:11:42.835Z,8.23
2023-05-08T20:13:45.116Z,7.68
2023-05-08T20:15:46.841Z,6.63
2023-05-08T20:17:48.567Z,6.40
2023-05-08T20:19:50.150Z,7.68
2023-05-08T20:21:51.670Z,8.65
2023-05-08T20:23:53.192Z,8.30
2023-05-08T20:25:54.803Z,6.68
2023-05-08T20:27:56.399Z,7.70
2023-05-08T20:29:58.186Z,6.20
2023-05-08T20:31:59.811Z,8.32
2023-05-08T20:34:01.381Z,6.65
2023-05-08T20:36:03.429Z,5.60
2023-05-08T20:38:05.185Z,7.70
2023-05-08T20:40:07.478Z,6.45
2023-05-08T20:42:09.034Z,8.13
2023-05-08T20:44:12.385Z,7.95
2023-05-08T20:46:14.015Z,9.25
2023-05-08T20:48:15.577Z,11.27
2023-05-08T20:50:17.188Z,9.60
2023-05-08T20:52:18.788Z,9.82
2023-05-08T20:54:20.397Z,9.77
2023-05-08T20:56:21.928Z,10.48
2023-05-08T20:58:23.447Z,9.43
2023-05-08T21:00:25.294Z,8.88
2023-05-08T21:02:26.991Z,9.25
2023-05-08T21:04:28.631Z,10.73
2023-05-08T21:06:30.679Z,9.70
2023-05-08T21:08:32.175Z,8.98
2023-05-08T21:10:34.061Z,8.98
2023-05-08T21:12:35.617Z,9.35
2023-05-08T21:14:40.059Z,8.70
2023-05-08T21:16:41.750Z,8.23
2023-05-08T21:18:43.323Z,7.57
2023-05-08T21:20:49.792Z,9.00
2023-05-08T21:22:51.437Z,8.60
2023-05-08T21:24:53.005Z,9.52
2023-05-08T21:26:54.597Z,8.65
2023-05-08T21:28:58.601Z,10.45
2023-05-08T21:31:00.537Z,9.05
2023-05-08T21:33:03.059Z,8.30
2023-05-08T21:35:04.880Z,9.10
2023-05-08T21:37:06.462Z,9.43
2023-05-08T21:39:08.356Z,9.15
2023-05-08T21:41:09.926Z,9.55
2023-05-08T21:43:11.466Z,10.27
2023-05-08T21:45:13.166Z,9.13
2023-05-08T21:47:14.840Z,8.25
2023-05-08T21:49:16.386Z,10.38
2023-05-08T21:51:17.911Z,9.30
2023-05-08T21:53:19.465Z,6.93
2023-05-08T21:55:21.356Z,7.68
2023-05-08T21:57:22.909Z,9.20
2023-05-08T21:59:24.426Z,7.50
2023-05-08T22:01:26.171Z,7.75
2023-05-08T22:03:28.092Z,8.55
2023-05-08T22:05:29.788Z,7.72
2023-05-08T22:07:31.321Z,8.73
2023-05-08T22:09:32.909Z,7.78
2023-05-08T22:11:34.416Z,7.32
2023-05-08T22:13:36.020Z,8.13
2023-05-08T22:15:37.552Z,7.50
2023-05-08T22:17:40.619Z,9.35
2023-05-08T22:19:42.198Z,8.35
2023-05-08T22:21:43.727Z,7.13
2023-05-08T22:23:45.370Z,9.57
2023-05-08T22:25:47.000Z,8.35
2023-05-08T22:27:48.578Z,9.13
2023-05-08T22:29:50.152Z,11.98
2023-05-08T22:31:51.812Z,8.15
2023-05-08T22:33:53.345Z,9.32
2023-05-08T22:35:54.856Z,8.77
2023-05-08T22:37:59.519Z,8.00
2023-05-08T22:40:01.056Z,10.38
2023-05-08T22:42:02.744Z,9.23
2023-05-08T22:44:04.491Z,9.25
2023-05-08T22:46:06.508Z,11.88
2023-05-08T22:48:10.844Z,8.75
2023-05-08T22:50:12.484Z,7.63
2023-05-08T22:52:14.029Z,8.65
2023-05-08T22:54:15.603Z,8.85
2023-05-08T22:56:17.172Z,7.38
2023-05-08T22:58:18.726Z,9.82
2023-05-08T23:00:20.635Z,9.10
2023-05-08T23:02:22.196Z,9.55
2023-05-08T23:04:23.782Z,8.68
2023-05-08T23:06:25.334Z,8.13
2023-05-08T23:08:26.956Z,8.85
2023-05-08T23:10:28.506Z,9.23
2023-05-08T23:12:30.105Z,8.75
2023-05-08T23:14:31.628Z,9.90
2023-05-08T23:16:33.232Z,8.63
2023-05-08T23:18:34.775Z,11.30
2023-05-08T23:20:36.362Z,8.80
2023-05-08T23:22:40.578Z,8.52
2023-05-08T23:24:45.226Z,11.00
2023-05-08T23:26:48.502Z,9.75
2023-05-08T23:28:50.052Z,10.07
2023-05-08T23:30:51.576Z,9.30
2023-05-08T23:32:53.156Z,8.05
2023-05-08T23:34:54.775Z,10.52
2023-05-08T23:36:56.335Z,8.80
2023-05-08T23:38:57.915Z,9.75
2023-05-08T23:40:59.470Z,9.40
2023-05-08T23:43:00.987Z,9.50
2023-05-08T23:45:02.892Z,10.48
2023-05-08T23:47:04.486Z,9.18
2023-05-08T23:49:06.769Z,8.57
2023-05-08T23:51:08.335Z,10.23
2023-05-08T23:53:09.898Z,9.75
2023-05-08T23:55:11.722Z,8.73
2023-05-08T23:57:13.381Z,9.38
2023-05-08T23:59:14.912Z,11.05
